sensor_id;sensor_type;location;lat;lon;timestamp;P1;durP1;ratioP1;P2;durP2;ratioP2
46765;SDS011;32527;51.986;5.842;2022-07-29T00:01:46;4.22;;;2.05;;
46765;SDS011;32527;51.986;5.842;2022-07-29T00:04:11;2.88;;;1.88;;
46765;SDS011;32527;51.986;5.842;2022-07-29T00:06:37;7.97;;;2.17;;
46765;SDS011;32527;51.986;5.842;2022-07-29T00:09:03;2.70;;;1.67;;
46765;SDS011;32527;51.986;5.842;2022-07-29T00:11:29;5.65;;;1.80;;
46765;SDS011;32527;51.986;5.842;2022-07-29T00:13:55;3.42;;;1.60;;
46765;SDS011;32527;51.986;5.842;2022-07-29T00:16:21;3.75;;;1.77;;
46765;SDS011;32527;51.986;5.842;2022-07-29T00:18:48;6.97;;;2.30;;
46765;SDS011;32527;51.986;5.842;2022-07-29T00:21:13;5.63;;;1.90;;
46765;SDS011;32527;51.986;5.842;2022-07-29T00:23:39;4.20;;;1.73;;
46765;SDS011;32527;51.986;5.842;2022-07-29T00:26:05;4.13;;;2.08;;
46765;SDS011;32527;51.986;5.842;2022-07-29T00:28:31;5.60;;;2.50;;
46765;SDS011;32527;51.986;5.842;2022-07-29T00:30:57;6.38;;;3.38;;
46765;SDS011;32527;51.986;5.842;2022-07-29T00:33:23;6.72;;;2.50;;
46765;SDS011;32527;51.986;5.842;2022-07-29T00:35:49;5.05;;;2.65;;
46765;SDS011;32527;51.986;5.842;2022-07-29T00:38:16;4.88;;;2.40;;
46765;SDS011;32527;51.986;5.842;2022-07-29T00:40:43;6.65;;;2.75;;
46765;SDS011;32527;51.986;5.842;2022-07-29T00:43:09;9.25;;;2.83;;
46765;SDS011;32527;51.986;5.842;2022-07-29T00:45:35;6.53;;;2.38;;
46765;SDS011;32527;51.986;5.842;2022-07-29T00:48:01;4.93;;;2.58;;
46765;SDS011;32527;51.986;5.842;2022-07-29T00:50:29;6.18;;;2.42;;
46765;SDS011;32527;51.986;5.842;2022-07-29T00:52:56;6.50;;;2.50;;
46765;SDS011;32527;51.986;5.842;2022-07-29T00:55:21;5.43;;;1.98;;
46765;SDS011;32527;51.986;5.842;2022-07-29T00:57:47;4.72;;;2.40;;
46765;SDS011;32527;51.986;5.842;2022-07-29T01:00:17;4.75;;;2.30;;
46765;SDS011;32527;51.986;5.842;2022-07-29T01:02:45;7.78;;;2.65;;
46765;SDS011;32527;51.986;5.842;2022-07-29T01:05:13;6.80;;;2.60;;
46765;SDS011;32527;51.986;5.842;2022-07-29T01:07:41;6.43;;;2.83;;
46765;SDS011;32527;51.986;5.842;2022-07-29T01:10:08;4.82;;;3.05;;
46765;SDS011;32527;51.986;5.842;2022-07-29T01:12:35;5.32;;;2.40;;
46765;SDS011;32527;51.986;5.842;2022-07-29T01:15:02;7.28;;;3.00;;
46765;SDS011;32527;51.986;5.842;2022-07-29T01:17:43;5.80;;;2.53;;
46765;SDS011;32527;51.986;5.842;2022-07-29T01:20:24;3.47;;;2.25;;
46765;SDS011;32527;51.986;5.842;2022-07-29T01:28:51;8.20;;;2.88;;
46765;SDS011;32527;51.986;5.842;2022-07-29T01:31:35;6.88;;;3.10;;
46765;SDS011;32527;51.986;5.842;2022-07-29T01:34:10;7.70;;;4.72;;
46765;SDS011;32527;51.986;5.842;2022-07-29T01:36:48;5.65;;;2.50;;
46765;SDS011;32527;51.986;5.842;2022-07-29T01:41:56;5.13;;;2.75;;
46765;SDS011;32527;51.986;5.842;2022-07-29T01:44:27;5.75;;;2.20;;
46765;SDS011;32527;51.986;5.842;2022-07-29T01:46:58;7.13;;;2.58;;
46765;SDS011;32527;51.986;5.842;2022-07-29T01:49:31;4.55;;;2.70;;
46765;SDS011;32527;51.986;5.842;2022-07-29T01:52:02;4.05;;;2.05;;
46765;SDS011;32527;51.986;5.842;2022-07-29T01:56:59;4.22;;;2.50;;
46765;SDS011;32527;51.986;5.842;2022-07-29T01:59:26;5.93;;;2.33;;
46765;SDS011;32527;51.986;5.842;2022-07-29T02:01:55;4.07;;;2.30;;
46765;SDS011;32527;51.986;5.842;2022-07-29T02:04:23;5.43;;;2.60;;
46765;SDS011;32527;51.986;5.842;2022-07-29T02:06:51;7.50;;;2.72;;
46765;SDS011;32527;51.986;5.842;2022-07-29T02:09:19;5.72;;;2.58;;
46765;SDS011;32527;51.986;5.842;2022-07-29T02:11:48;4.85;;;2.22;;
46765;SDS011;32527;51.986;5.842;2022-07-29T02:14:17;5.43;;;2.35;;
46765;SDS011;32527;51.986;5.842;2022-07-29T02:16:44;5.68;;;2.70;;
46765;SDS011;32527;51.986;5.842;2022-07-29T02:19:12;4.60;;;2.40;;
46765;SDS011;32527;51.986;5.842;2022-07-29T02:21:38;4.13;;;2.17;;
46765;SDS011;32527;51.986;5.842;2022-07-29T02:24:04;4.55;;;2.03;;
46765;SDS011;32527;51.986;5.842;2022-07-29T02:26:30;6.45;;;2.70;;
46765;SDS011;32527;51.986;5.842;2022-07-29T02:28:58;6.47;;;2.60;;
46765;SDS011;32527;51.986;5.842;2022-07-29T02:31:25;5.07;;;2.40;;
46765;SDS011;32527;51.986;5.842;2022-07-29T02:33:54;5.38;;;2.38;;
46765;SDS011;32527;51.986;5.842;2022-07-29T02:36:23;4.75;;;2.35;;
46765;SDS011;32527;51.986;5.842;2022-07-29T02:38:50;4.00;;;2.63;;
46765;SDS011;32527;51.986;5.842;2022-07-29T02:41:18;7.07;;;2.75;;
46765;SDS011;32527;51.986;5.842;2022-07-29T02:43:48;4.45;;;2.55;;
46765;SDS011;32527;51.986;5.842;2022-07-29T02:46:19;5.28;;;2.80;;
46765;SDS011;32527;51.986;5.842;2022-07-29T02:48:51;5.25;;;2.45;;
46765;SDS011;32527;51.986;5.842;2022-07-29T02:51:28;5.03;;;2.85;;
46765;SDS011;32527;51.986;5.842;2022-07-29T02:53:58;6.70;;;2.65;;
46765;SDS011;32527;51.986;5.842;2022-07-29T02:56:28;7.80;;;2.58;;
46765;SDS011;32527;51.986;5.842;2022-07-29T02:59:01;4.85;;;2.75;;
46765;SDS011;32527;51.986;5.842;2022-07-29T03:01:31;6.38;;;2.97;;
46765;SDS011;32527;51.986;5.842;2022-07-29T03:03:59;13.00;;;4.43;;
46765;SDS011;32527;51.986;5.842;2022-07-29T03:06:27;5.13;;;2.85;;
46765;SDS011;32527;51.986;5.842;2022-07-29T03:08:54;9.52;;;3.08;;
46765;SDS011;32527;51.986;5.842;2022-07-29T03:11:20;7.90;;;3.20;;
46765;SDS011;32527;51.986;5.842;2022-07-29T03:13:47;5.78;;;3.35;;
46765;SDS011;32527;51.986;5.842;2022-07-29T03:16:13;7.47;;;3.72;;
46765;SDS011;32527;51.986;5.842;2022-07-29T03:18:40;5.75;;;3.20;;
46765;SDS011;32527;51.986;5.842;2022-07-29T03:21:06;7.05;;;3.53;;
46765;SDS011;32527;51.986;5.842;2022-07-29T03:23:33;6.93;;;3.47;;
46765;SDS011;32527;51.986;5.842;2022-07-29T03:25:59;9.20;;;4.00;;
46765;SDS011;32527;51.986;5.842;2022-07-29T03:28:24;8.45;;;3.85;;
46765;SDS011;32527;51.986;5.842;2022-07-29T03:30:52;6.78;;;3.83;;
46765;SDS011;32527;51.986;5.842;2022-07-29T03:33:18;7.22;;;3.35;;
46765;SDS011;32527;51.986;5.842;2022-07-29T03:35:43;8.40;;;4.13;;
46765;SDS011;32527;51.986;5.842;2022-07-29T03:38:10;6.47;;;3.78;;
46765;SDS011;32527;51.986;5.842;2022-07-29T03:40:37;8.07;;;4.13;;
46765;SDS011;32527;51.986;5.842;2022-07-29T03:43:14;6.57;;;4.05;;
46765;SDS011;32527;51.986;5.842;2022-07-29T03:45:42;8.68;;;4.18;;
46765;SDS011;32527;51.986;5.842;2022-07-29T03:48:12;8.43;;;3.97;;
46765;SDS011;32527;51.986;5.842;2022-07-29T03:50:41;10.55;;;4.38;;
46765;SDS011;32527;51.986;5.842;2022-07-29T03:53:07;9.60;;;4.40;;
46765;SDS011;32527;51.986;5.842;2022-07-29T03:55:33;11.23;;;3.97;;
46765;SDS011;32527;51.986;5.842;2022-07-29T03:58:05;6.80;;;3.58;;
46765;SDS011;32527;51.986;5.842;2022-07-29T04:00:33;9.23;;;4.20;;
46765;SDS011;32527;51.986;5.842;2022-07-29T04:02:59;12.40;;;4.95;;
46765;SDS011;32527;51.986;5.842;2022-07-29T04:05:26;8.15;;;4.40;;
46765;SDS011;32527;51.986;5.842;2022-07-29T04:07:52;7.05;;;4.68;;
46765;SDS011;32527;51.986;5.842;2022-07-29T04:10:17;9.02;;;4.63;;
46765;SDS011;32527;51.986;5.842;2022-07-29T04:12:44;8.38;;;4.47;;
46765;SDS011;32527;51.986;5.842;2022-07-29T04:15:10;6.63;;;4.50;;
46765;SDS011;32527;51.986;5.842;2022-07-29T04:17:36;8.65;;;4.55;;
46765;SDS011;32527;51.986;5.842;2022-07-29T04:20:03;6.82;;;4.18;;
46765;SDS011;32527;51.986;5.842;2022-07-29T04:22:29;7.80;;;4.85;;
46765;SDS011;32527;51.986;5.842;2022-07-29T04:24:55;8.18;;;4.63;;
46765;SDS011;32527;51.986;5.842;2022-07-29T04:27:20;10.65;;;4.93;;
46765;SDS011;32527;51.986;5.842;2022-07-29T04:29:46;8.93;;;4.60;;
46765;SDS011;32527;51.986;5.842;2022-07-29T04:32:12;6.10;;;4.80;;
46765;SDS011;32527;51.986;5.842;2022-07-29T04:34:38;6.93;;;4.80;;
46765;SDS011;32527;51.986;5.842;2022-07-29T04:37:03;6.28;;;4.40;;
46765;SDS011;32527;51.986;5.842;2022-07-29T04:39:29;11.85;;;5.43;;
46765;SDS011;32527;51.986;5.842;2022-07-29T04:41:54;7.57;;;5.03;;
46765;SDS011;32527;51.986;5.842;2022-07-29T04:44:20;9.18;;;4.45;;
46765;SDS011;32527;51.986;5.842;2022-07-29T04:46:46;7.15;;;4.38;;
46765;SDS011;32527;51.986;5.842;2022-07-29T04:49:12;7.60;;;4.13;;
46765;SDS011;32527;51.986;5.842;2022-07-29T04:51:38;8.35;;;4.47;;
46765;SDS011;32527;51.986;5.842;2022-07-29T04:54:03;7.40;;;4.72;;
46765;SDS011;32527;51.986;5.842;2022-07-29T04:56:29;7.15;;;4.47;;
46765;SDS011;32527;51.986;5.842;2022-07-29T04:58:55;6.93;;;4.05;;
46765;SDS011;32527;51.986;5.842;2022-07-29T05:01:21;6.38;;;4.28;;
46765;SDS011;32527;51.986;5.842;2022-07-29T05:03:47;6.93;;;4.28;;
46765;SDS011;32527;51.986;5.842;2022-07-29T05:06:13;10.15;;;3.95;;
46765;SDS011;32527;51.986;5.842;2022-07-29T05:08:38;9.00;;;4.65;;
46765;SDS011;32527;51.986;5.842;2022-07-29T05:11:04;7.63;;;4.18;;
46765;SDS011;32527;51.986;5.842;2022-07-29T05:13:29;9.52;;;4.30;;
46765;SDS011;32527;51.986;5.842;2022-07-29T05:15:55;9.25;;;4.53;;
46765;SDS011;32527;51.986;5.842;2022-07-29T05:18:23;10.77;;;4.38;;
46765;SDS011;32527;51.986;5.842;2022-07-29T05:20:49;12.73;;;4.10;;
46765;SDS011;32527;51.986;5.842;2022-07-29T05:23:15;9.93;;;3.95;;
46765;SDS011;32527;51.986;5.842;2022-07-29T05:25:41;6.22;;;4.32;;
46765;SDS011;32527;51.986;5.842;2022-07-29T05:28:07;6.93;;;3.97;;
46765;SDS011;32527;51.986;5.842;2022-07-29T05:30:32;10.63;;;3.95;;
46765;SDS011;32527;51.986;5.842;2022-07-29T05:32:58;6.85;;;3.70;;
46765;SDS011;32527;51.986;5.842;2022-07-29T05:35:24;9.13;;;3.88;;
46765;SDS011;32527;51.986;5.842;2022-07-29T05:37:49;7.07;;;3.80;;
46765;SDS011;32527;51.986;5.842;2022-07-29T05:40:15;8.18;;;3.83;;
46765;SDS011;32527;51.986;5.842;2022-07-29T05:42:41;6.60;;;3.58;;
46765;SDS011;32527;51.986;5.842;2022-07-29T05:45:07;7.85;;;3.63;;
46765;SDS011;32527;51.986;5.842;2022-07-29T05:47:33;6.88;;;3.60;;
46765;SDS011;32527;51.986;5.842;2022-07-29T05:49:59;8.77;;;3.78;;
46765;SDS011;32527;51.986;5.842;2022-07-29T05:52:25;9.07;;;4.00;;
46765;SDS011;32527;51.986;5.842;2022-07-29T05:54:51;6.32;;;3.25;;
46765;SDS011;32527;51.986;5.842;2022-07-29T05:57:17;7.97;;;3.60;;
46765;SDS011;32527;51.986;5.842;2022-07-29T05:59:44;7.10;;;3.83;;
46765;SDS011;32527;51.986;5.842;2022-07-29T06:02:09;5.70;;;3.35;;
46765;SDS011;32527;51.986;5.842;2022-07-29T06:04:36;7.57;;;4.13;;
46765;SDS011;32527;51.986;5.842;2022-07-29T06:07:02;8.35;;;4.65;;
46765;SDS011;32527;51.986;5.842;2022-07-29T06:09:28;8.23;;;4.00;;
46765;SDS011;32527;51.986;5.842;2022-07-29T06:11:53;8.25;;;3.53;;
46765;SDS011;32527;51.986;5.842;2022-07-29T06:14:19;5.93;;;3.40;;
46765;SDS011;32527;51.986;5.842;2022-07-29T06:16:45;9.95;;;3.78;;
46765;SDS011;32527;51.986;5.842;2022-07-29T06:19:11;8.57;;;3.60;;
46765;SDS011;32527;51.986;5.842;2022-07-29T06:21:40;9.68;;;3.80;;
46765;SDS011;32527;51.986;5.842;2022-07-29T06:24:10;7.38;;;3.78;;
46765;SDS011;32527;51.986;5.842;2022-07-29T06:26:37;4.80;;;3.80;;
46765;SDS011;32527;51.986;5.842;2022-07-29T06:29:04;6.32;;;3.38;;
46765;SDS011;32527;51.986;5.842;2022-07-29T06:31:30;6.43;;;3.95;;
46765;SDS011;32527;51.986;5.842;2022-07-29T06:33:56;7.32;;;3.80;;
46765;SDS011;32527;51.986;5.842;2022-07-29T06:36:21;5.28;;;4.10;;
46765;SDS011;32527;51.986;5.842;2022-07-29T06:38:47;7.75;;;4.18;;
46765;SDS011;32527;51.986;5.842;2022-07-29T06:41:13;7.68;;;3.53;;
46765;SDS011;32527;51.986;5.842;2022-07-29T06:43:41;6.22;;;3.45;;
46765;SDS011;32527;51.986;5.842;2022-07-29T06:46:10;6.53;;;4.68;;
46765;SDS011;32527;51.986;5.842;2022-07-29T06:48:37;6.35;;;3.55;;
46765;SDS011;32527;51.986;5.842;2022-07-29T06:51:04;9.60;;;3.58;;
46765;SDS011;32527;51.986;5.842;2022-07-29T06:53:31;7.95;;;3.88;;
46765;SDS011;32527;51.986;5.842;2022-07-29T06:55:58;5.55;;;3.05;;
46765;SDS011;32527;51.986;5.842;2022-07-29T06:58:25;6.88;;;3.30;;
46765;SDS011;32527;51.986;5.842;2022-07-29T07:00:55;7.13;;;3.67;;
46765;SDS011;32527;51.986;5.842;2022-07-29T07:03:22;7.57;;;3.58;;
46765;SDS011;32527;51.986;5.842;2022-07-29T07:05:48;4.32;;;2.85;;
46765;SDS011;32527;51.986;5.842;2022-07-29T07:08:14;8.07;;;3.33;;
46765;SDS011;32527;51.986;5.842;2022-07-29T07:10:41;5.78;;;2.90;;
46765;SDS011;32527;51.986;5.842;2022-07-29T07:13:08;4.97;;;3.22;;
46765;SDS011;32527;51.986;5.842;2022-07-29T07:15:35;6.70;;;3.15;;
46765;SDS011;32527;51.986;5.842;2022-07-29T07:18:01;5.07;;;3.20;;
46765;SDS011;32527;51.986;5.842;2022-07-29T07:20:27;4.75;;;2.63;;
46765;SDS011;32527;51.986;5.842;2022-07-29T07:22:53;4.75;;;2.72;;
46765;SDS011;32527;51.986;5.842;2022-07-29T07:25:18;4.55;;;2.72;;
46765;SDS011;32527;51.986;5.842;2022-07-29T07:27:44;7.15;;;2.90;;
46765;SDS011;32527;51.986;5.842;2022-07-29T07:30:10;4.22;;;3.08;;
46765;SDS011;32527;51.986;5.842;2022-07-29T07:32:36;4.68;;;3.00;;
46765;SDS011;32527;51.986;5.842;2022-07-29T07:35:03;5.40;;;3.42;;
46765;SDS011;32527;51.986;5.842;2022-07-29T07:37:29;6.85;;;2.55;;
46765;SDS011;32527;51.986;5.842;2022-07-29T07:39:55;5.63;;;3.22;;
46765;SDS011;32527;51.986;5.842;2022-07-29T07:42:21;7.00;;;2.88;;
46765;SDS011;32527;51.986;5.842;2022-07-29T07:44:47;4.53;;;3.45;;
46765;SDS011;32527;51.986;5.842;2022-07-29T07:47:13;6.45;;;2.95;;
46765;SDS011;32527;51.986;5.842;2022-07-29T07:49:48;5.30;;;3.00;;
46765;SDS011;32527;51.986;5.842;2022-07-29T07:52:16;5.50;;;3.22;;
46765;SDS011;32527;51.986;5.842;2022-07-29T07:54:42;5.68;;;3.05;;
46765;SDS011;32527;51.986;5.842;2022-07-29T07:57:10;6.43;;;3.08;;
46765;SDS011;32527;51.986;5.842;2022-07-29T07:59:39;5.53;;;2.72;;
46765;SDS011;32527;51.986;5.842;2022-07-29T08:02:04;5.22;;;3.15;;
46765;SDS011;32527;51.986;5.842;2022-07-29T08:04:31;5.80;;;3.10;;
46765;SDS011;32527;51.986;5.842;2022-07-29T08:06:57;6.70;;;3.08;;
46765;SDS011;32527;51.986;5.842;2022-07-29T08:09:24;6.10;;;3.03;;
46765;SDS011;32527;51.986;5.842;2022-07-29T08:11:51;6.78;;;3.08;;
46765;SDS011;32527;51.986;5.842;2022-07-29T08:14:16;7.13;;;2.97;;
46765;SDS011;32527;51.986;5.842;2022-07-29T08:16:42;8.32;;;3.10;;
46765;SDS011;32527;51.986;5.842;2022-07-29T08:19:08;6.32;;;2.80;;
46765;SDS011;32527;51.986;5.842;2022-07-29T08:21:34;5.82;;;2.95;;
46765;SDS011;32527;51.986;5.842;2022-07-29T08:24:00;7.32;;;3.03;;
46765;SDS011;32527;51.986;5.842;2022-07-29T08:26:44;6.40;;;3.03;;
46765;SDS011;32527;51.986;5.842;2022-07-29T08:29:10;5.75;;;3.45;;
46765;SDS011;32527;51.986;5.842;2022-07-29T08:31:36;5.30;;;3.20;;
46765;SDS011;32527;51.986;5.842;2022-07-29T08:34:03;8.02;;;3.80;;
46765;SDS011;32527;51.986;5.842;2022-07-29T08:36:29;7.50;;;2.95;;
46765;SDS011;32527;51.986;5.842;2022-07-29T08:38:55;5.90;;;3.15;;
46765;SDS011;32527;51.986;5.842;2022-07-29T08:41:22;5.45;;;3.40;;
46765;SDS011;32527;51.986;5.842;2022-07-29T08:43:48;7.38;;;3.40;;
46765;SDS011;32527;51.986;5.842;2022-07-29T08:46:14;6.13;;;3.30;;
46765;SDS011;32527;51.986;5.842;2022-07-29T08:48:41;5.68;;;2.90;;
46765;SDS011;32527;51.986;5.842;2022-07-29T08:51:08;6.00;;;3.00;;
46765;SDS011;32527;51.986;5.842;2022-07-29T08:53:37;6.53;;;3.20;;
46765;SDS011;32527;51.986;5.842;2022-07-29T08:56:07;7.03;;;3.70;;
46765;SDS011;32527;51.986;5.842;2022-07-29T08:58:36;4.53;;;2.60;;
46765;SDS011;32527;51.986;5.842;2022-07-29T09:01:02;5.43;;;2.95;;
46765;SDS011;32527;51.986;5.842;2022-07-29T09:03:31;4.35;;;2.83;;
46765;SDS011;32527;51.986;5.842;2022-07-29T09:05:59;6.85;;;3.28;;
46765;SDS011;32527;51.986;5.842;2022-07-29T09:08:26;4.80;;;2.90;;
46765;SDS011;32527;51.986;5.842;2022-07-29T09:10:53;5.25;;;3.10;;
46765;SDS011;32527;51.986;5.842;2022-07-29T09:13:20;4.28;;;2.78;;
46765;SDS011;32527;51.986;5.842;2022-07-29T09:15:46;5.45;;;2.72;;
46765;SDS011;32527;51.986;5.842;2022-07-29T09:18:12;7.78;;;3.50;;
46765;SDS011;32527;51.986;5.842;2022-07-29T09:21:03;4.97;;;3.50;;
46765;SDS011;32527;51.986;5.842;2022-07-29T09:24:03;7.70;;;3.15;;
46765;SDS011;32527;51.986;5.842;2022-07-29T09:26:30;4.60;;;2.83;;
46765;SDS011;32527;51.986;5.842;2022-07-29T09:28:57;6.43;;;3.35;;
46765;SDS011;32527;51.986;5.842;2022-07-29T09:31:27;7.97;;;3.17;;
46765;SDS011;32527;51.986;5.842;2022-07-29T09:33:59;6.78;;;3.25;;
46765;SDS011;32527;51.986;5.842;2022-07-29T09:36:25;6.28;;;3.28;;
46765;SDS011;32527;51.986;5.842;2022-07-29T09:38:58;6.45;;;3.15;;
46765;SDS011;32527;51.986;5.842;2022-07-29T09:41:25;7.50;;;2.90;;
46765;SDS011;32527;51.986;5.842;2022-07-29T09:43:55;7.20;;;3.13;;
46765;SDS011;32527;51.986;5.842;2022-07-29T09:46:22;6.22;;;3.05;;
46765;SDS011;32527;51.986;5.842;2022-07-29T09:51:35;10.48;;;2.95;;
46765;SDS011;32527;51.986;5.842;2022-07-29T09:54:01;6.05;;;2.97;;
46765;SDS011;32527;51.986;5.842;2022-07-29T09:56:45;11.07;;;4.35;;
46765;SDS011;32527;51.986;5.842;2022-07-29T09:59:13;8.95;;;3.70;;
46765;SDS011;32527;51.986;5.842;2022-07-29T10:01:39;6.65;;;3.50;;
46765;SDS011;32527;51.986;5.842;2022-07-29T10:04:05;6.70;;;3.10;;
46765;SDS011;32527;51.986;5.842;2022-07-29T10:06:30;7.55;;;3.17;;
46765;SDS011;32527;51.986;5.842;2022-07-29T10:09:11;4.70;;;2.78;;
46765;SDS011;32527;51.986;5.842;2022-07-29T10:11:37;5.50;;;2.60;;
46765;SDS011;32527;51.986;5.842;2022-07-29T10:14:03;5.32;;;2.67;;
46765;SDS011;32527;51.986;5.842;2022-07-29T10:16:29;5.85;;;2.85;;
46765;SDS011;32527;51.986;5.842;2022-07-29T10:19:00;7.03;;;2.88;;
46765;SDS011;32527;51.986;5.842;2022-07-29T10:21:26;5.93;;;2.78;;
46765;SDS011;32527;51.986;5.842;2022-07-29T10:23:52;7.25;;;2.55;;
46765;SDS011;32527;51.986;5.842;2022-07-29T10:26:21;5.68;;;2.60;;
46765;SDS011;32527;51.986;5.842;2022-07-29T10:28:47;5.68;;;2.63;;
46765;SDS011;32527;51.986;5.842;2022-07-29T10:31:25;4.70;;;2.40;;
46765;SDS011;32527;51.986;5.842;2022-07-29T10:37:03;3.47;;;2.30;;
46765;SDS011;32527;51.986;5.842;2022-07-29T10:42:52;6.05;;;2.25;;
46765;SDS011;32527;51.986;5.842;2022-07-29T10:45:18;5.30;;;2.65;;
46765;SDS011;32527;51.986;5.842;2022-07-29T10:47:45;6.13;;;3.20;;
46765;SDS011;32527;51.986;5.842;2022-07-29T10:50:10;8.90;;;2.53;;
46765;SDS011;32527;51.986;5.842;2022-07-29T10:52:51;6.22;;;2.70;;
46765;SDS011;32527;51.986;5.842;2022-07-29T10:55:31;5.43;;;2.60;;
46765;SDS011;32527;51.986;5.842;2022-07-29T10:58:17;6.45;;;2.30;;
46765;SDS011;32527;51.986;5.842;2022-07-29T11:00:53;7.32;;;2.53;;
46765;SDS011;32527;51.986;5.842;2022-07-29T11:06:15;6.45;;;2.95;;
46765;SDS011;32527;51.986;5.842;2022-07-29T11:08:42;6.45;;;2.38;;
46765;SDS011;32527;51.986;5.842;2022-07-29T11:16:19;6.75;;;2.45;;
46765;SDS011;32527;51.986;5.842;2022-07-29T11:19:34;5.60;;;2.08;;
46765;SDS011;32527;51.986;5.842;2022-07-29T11:21:37;7.72;;;2.00;;
46765;SDS011;32527;51.986;5.842;2022-07-29T11:24:11;3.70;;;2.00;;
46765;SDS011;32527;51.986;5.842;2022-07-29T11:26:41;5.22;;;2.42;;
46765;SDS011;32527;51.986;5.842;2022-07-29T11:31:52;3.85;;;2.20;;
46765;SDS011;32527;51.986;5.842;2022-07-29T11:34:30;3.67;;;2.30;;
46765;SDS011;32527;51.986;5.842;2022-07-29T11:39:33;6.03;;;2.50;;
46765;SDS011;32527;51.986;5.842;2022-07-29T11:44:57;5.05;;;2.60;;
46765;SDS011;32527;51.986;5.842;2022-07-29T11:47:36;7.68;;;2.40;;
46765;SDS011;32527;51.986;5.842;2022-07-29T11:50:06;3.25;;;2.10;;
46765;SDS011;32527;51.986;5.842;2022-07-29T11:52:37;4.75;;;2.40;;
46765;SDS011;32527;51.986;5.842;2022-07-29T11:55:18;5.18;;;2.55;;
46765;SDS011;32527;51.986;5.842;2022-07-29T11:57:52;6.65;;;2.42;;
46765;SDS011;32527;51.986;5.842;2022-07-29T12:00:23;4.00;;;2.17;;
46765;SDS011;32527;51.986;5.842;2022-07-29T12:02:54;6.47;;;2.70;;
46765;SDS011;32527;51.986;5.842;2022-07-29T12:05:21;7.65;;;2.65;;
46765;SDS011;32527;51.986;5.842;2022-07-29T12:07:58;6.43;;;2.75;;
46765;SDS011;32527;51.986;5.842;2022-07-29T12:10:33;5.07;;;2.78;;
46765;SDS011;32527;51.986;5.842;2022-07-29T12:12:59;5.40;;;3.05;;
46765;SDS011;32527;51.986;5.842;2022-07-29T12:15:25;5.50;;;2.72;;
46765;SDS011;32527;51.986;5.842;2022-07-29T12:17:51;6.90;;;2.80;;
46765;SDS011;32527;51.986;5.842;2022-07-29T12:20:27;5.25;;;2.50;;
46765;SDS011;32527;51.986;5.842;2022-07-29T12:22:54;5.43;;;3.00;;
46765;SDS011;32527;51.986;5.842;2022-07-29T12:25:22;10.57;;;2.97;;
46765;SDS011;32527;51.986;5.842;2022-07-29T12:27:58;7.47;;;3.05;;
46765;SDS011;32527;51.986;5.842;2022-07-29T12:33:13;5.65;;;2.85;;
46765;SDS011;32527;51.986;5.842;2022-07-29T12:35:49;6.53;;;2.83;;
46765;SDS011;32527;51.986;5.842;2022-07-29T12:38:18;9.35;;;3.45;;
46765;SDS011;32527;51.986;5.842;2022-07-29T12:40:45;8.73;;;2.95;;
46765;SDS011;32527;51.986;5.842;2022-07-29T12:43:12;7.22;;;2.83;;
46765;SDS011;32527;51.986;5.842;2022-07-29T12:45:42;6.50;;;3.00;;
46765;SDS011;32527;51.986;5.842;2022-07-29T12:48:10;6.72;;;2.65;;
46765;SDS011;32527;51.986;5.842;2022-07-29T12:50:47;4.80;;;3.08;;
46765;SDS011;32527;51.986;5.842;2022-07-29T12:53:24;8.43;;;2.90;;
46765;SDS011;32527;51.986;5.842;2022-07-29T12:55:50;10.40;;;2.80;;
46765;SDS011;32527;51.986;5.842;2022-07-29T13:00:59;4.63;;;3.20;;
46765;SDS011;32527;51.986;5.842;2022-07-29T13:03:48;5.60;;;2.75;;
46765;SDS011;32527;51.986;5.842;2022-07-29T13:06:30;6.15;;;3.38;;
46765;SDS011;32527;51.986;5.842;2022-07-29T13:11:42;5.00;;;2.30;;
46765;SDS011;32527;51.986;5.842;2022-07-29T13:17:14;5.68;;;3.40;;
46765;SDS011;32527;51.986;5.842;2022-07-29T13:19:53;3.83;;;2.58;;
46765;SDS011;32527;51.986;5.842;2022-07-29T13:22:30;9.60;;;2.70;;
46765;SDS011;32527;51.986;5.842;2022-07-29T13:24:57;7.22;;;3.00;;
46765;SDS011;32527;51.986;5.842;2022-07-29T13:27:25;9.07;;;2.53;;
46765;SDS011;32527;51.986;5.842;2022-07-29T13:29:52;5.60;;;2.90;;
46765;SDS011;32527;51.986;5.842;2022-07-29T13:32:21;6.63;;;2.83;;
46765;SDS011;32527;51.986;5.842;2022-07-29T13:34:47;7.57;;;2.88;;
46765;SDS011;32527;51.986;5.842;2022-07-29T13:37:13;5.07;;;2.72;;
46765;SDS011;32527;51.986;5.842;2022-07-29T13:39:39;4.72;;;2.40;;
46765;SDS011;32527;51.986;5.842;2022-07-29T13:42:05;7.60;;;2.38;;
46765;SDS011;32527;51.986;5.842;2022-07-29T13:44:32;6.70;;;2.33;;
46765;SDS011;32527;51.986;5.842;2022-07-29T13:46:58;5.20;;;2.58;;
46765;SDS011;32527;51.986;5.842;2022-07-29T13:49:26;4.32;;;2.53;;
46765;SDS011;32527;51.986;5.842;2022-07-29T13:51:52;7.95;;;2.80;;
46765;SDS011;32527;51.986;5.842;2022-07-29T13:54:18;6.53;;;3.10;;
46765;SDS011;32527;51.986;5.842;2022-07-29T13:56:44;4.10;;;2.40;;
46765;SDS011;32527;51.986;5.842;2022-07-29T13:59:10;6.03;;;2.83;;
46765;SDS011;32527;51.986;5.842;2022-07-29T14:01:36;5.88;;;3.00;;
46765;SDS011;32527;51.986;5.842;2022-07-29T14:04:03;4.40;;;2.85;;
46765;SDS011;32527;51.986;5.842;2022-07-29T14:06:28;5.70;;;2.58;;
46765;SDS011;32527;51.986;5.842;2022-07-29T14:08:54;3.58;;;2.50;;
46765;SDS011;32527;51.986;5.842;2022-07-29T14:11:20;6.72;;;2.85;;
46765;SDS011;32527;51.986;5.842;2022-07-29T14:13:46;6.03;;;3.03;;
46765;SDS011;32527;51.986;5.842;2022-07-29T14:16:11;6.28;;;2.70;;
46765;SDS011;32527;51.986;5.842;2022-07-29T14:18:37;5.25;;;2.53;;
46765;SDS011;32527;51.986;5.842;2022-07-29T14:21:03;6.78;;;3.10;;
46765;SDS011;32527;51.986;5.842;2022-07-29T14:23:28;7.05;;;2.63;;
46765;SDS011;32527;51.986;5.842;2022-07-29T14:25:54;2.80;;;2.13;;
46765;SDS011;32527;51.986;5.842;2022-07-29T14:28:20;4.95;;;2.60;;
46765;SDS011;32527;51.986;5.842;2022-07-29T14:30:46;4.57;;;2.60;;
46765;SDS011;32527;51.986;5.842;2022-07-29T14:33:11;7.68;;;2.58;;
46765;SDS011;32527;51.986;5.842;2022-07-29T14:35:37;5.57;;;2.50;;
46765;SDS011;32527;51.986;5.842;2022-07-29T14:38:04;6.53;;;2.50;;
46765;SDS011;32527;51.986;5.842;2022-07-29T14:40:29;9.32;;;2.67;;
46765;SDS011;32527;51.986;5.842;2022-07-29T14:42:55;4.25;;;2.55;;
46765;SDS011;32527;51.986;5.842;2022-07-29T14:45:20;3.90;;;2.47;;
46765;SDS011;32527;51.986;5.842;2022-07-29T14:47:46;5.97;;;2.53;;
46765;SDS011;32527;51.986;5.842;2022-07-29T14:50:12;11.13;;;2.45;;
46765;SDS011;32527;51.986;5.842;2022-07-29T14:52:38;6.63;;;2.78;;
46765;SDS011;32527;51.986;5.842;2022-07-29T14:55:04;10.38;;;2.88;;
46765;SDS011;32527;51.986;5.842;2022-07-29T14:57:30;6.80;;;2.40;;
46765;SDS011;32527;51.986;5.842;2022-07-29T14:59:56;6.13;;;2.63;;
46765;SDS011;32527;51.986;5.842;2022-07-29T15:02:21;4.68;;;2.38;;
46765;SDS011;32527;51.986;5.842;2022-07-29T15:04:47;5.47;;;2.28;;
46765;SDS011;32527;51.986;5.842;2022-07-29T15:07:14;6.57;;;2.75;;
46765;SDS011;32527;51.986;5.842;2022-07-29T15:09:40;5.30;;;2.70;;
46765;SDS011;32527;51.986;5.842;2022-07-29T15:12:07;4.95;;;3.00;;
46765;SDS011;32527;51.986;5.842;2022-07-29T15:14:33;3.63;;;2.50;;
46765;SDS011;32527;51.986;5.842;2022-07-29T15:16:58;3.42;;;2.40;;
46765;SDS011;32527;51.986;5.842;2022-07-29T15:19:24;3.05;;;2.10;;
46765;SDS011;32527;51.986;5.842;2022-07-29T15:21:50;7.50;;;2.80;;
46765;SDS011;32527;51.986;5.842;2022-07-29T15:24:16;5.00;;;2.50;;
46765;SDS011;32527;51.986;5.842;2022-07-29T15:26:42;3.92;;;2.70;;
46765;SDS011;32527;51.986;5.842;2022-07-29T15:29:08;3.00;;;2.25;;
46765;SDS011;32527;51.986;5.842;2022-07-29T15:31:33;8.02;;;2.95;;
46765;SDS011;32527;51.986;5.842;2022-07-29T15:33:59;4.72;;;2.30;;
46765;SDS011;32527;51.986;5.842;2022-07-29T15:36:25;6.10;;;2.60;;
46765;SDS011;32527;51.986;5.842;2022-07-29T15:38:53;3.65;;;2.45;;
46765;SDS011;32527;51.986;5.842;2022-07-29T15:41:19;5.43;;;2.28;;